createdAt,value
2017-04-07T00:02:03.397Z,4.9
2017-04-07T00:07:02.882Z,4.9
2017-04-07T00:12:02.743Z,4.8
2017-04-07T00:17:03.419Z,4.8
2017-04-07T00:22:02.902Z,4.7
2017-04-07T00:27:03.563Z,4.7
2017-04-07T00:32:03.295Z,4.6
2017-04-07T00:37:02.841Z,4.3
2017-04-07T00:42:03.534Z,4.2
2017-04-07T00:47:03.270Z,4.2
2017-04-07T00:52:03.216Z,4.3
2017-04-07T00:57:03.386Z,4.3
2017-04-07T01:02:03.038Z,4.1
2017-04-07T01:07:02.860Z,4.1
2017-04-07T01:12:03.616Z,4.0
2017-04-07T01:17:03.430Z,4.1
2017-04-07T01:22:02.844Z,4.1
2017-04-07T01:27:03.646Z,4.0
2017-04-07T01:32:02.898Z,4.0
2017-04-07T01:37:02.989Z,4.0
2017-04-07T01:42:02.874Z,3.8
2017-04-07T01:47:02.934Z,3.8
2017-04-07T01:52:03.536Z,3.8
2017-04-07T01:57:03.554Z,3.7
2017-04-07T02:02:02.673Z,3.6
2017-04-07T02:07:03.693Z,3.6
2017-04-07T02:12:03.511Z,3.5
2017-04-07T02:17:03.362Z,3.6
2017-04-07T02:22:03.734Z,3.4
2017-04-07T02:27:02.910Z,3.3
2017-04-07T02:32:03.152Z,3.3
2017-04-07T02:37:03.381Z,3.2
2017-04-07T02:42:03.594Z,3.0
2017-04-07T02:47:03.072Z,2.9
2017-04-07T02:52:03.227Z,2.9
2017-04-07T02:57:03.450Z,2.8
2017-04-07T03:02:02.835Z,2.4
2017-04-07T03:07:03.211Z,2.4
2017-04-07T03:12:03.418Z,2.4
2017-04-07T03:17:03.140Z,2.4
2017-04-07T03:22:03.091Z,2.4
2017-04-07T03:27:03.326Z,2.4
2017-04-07T03:32:03.619Z,2.5
2017-04-07T03:37:02.889Z,2.4
2017-04-07T03:42:03.048Z,2.5
2017-04-07T03:47:03.155Z,2.5
2017-04-07T03:52:03.574Z,2.4
2017-04-07T03:57:02.669Z,2.4
2017-04-07T04:02:03.020Z,2.3
2017-04-07T04:07:03.391Z,2.2
2017-04-07T04:12:03.369Z,2.2
2017-04-07T04:17:10.760Z,2.2
2017-04-07T04:22:03.501Z,2.2
2017-04-07T04:27:02.844Z,2.1
2017-04-07T04:32:13.319Z,2.1
2017-04-07T04:37:03.339Z,2.2
2017-04-07T04:42:02.834Z,2.1
2017-04-07T04:47:14.127Z,2.2
2017-04-07T04:52:03.161Z,2.2
2017-04-07T04:57:03.460Z,2.2
2017-04-07T05:02:17.832Z,2.2
2017-04-07T05:07:03.608Z,2.3
2017-04-07T05:12:02.720Z,2.3
2017-04-07T05:17:18.248Z,2.3
2017-04-07T05:22:03.502Z,2.4
2017-04-07T05:27:03.060Z,2.4
2017-04-07T05:32:13.193Z,2.4
2017-04-07T05:37:02.833Z,2.6
2017-04-07T05:42:02.809Z,2.8
2017-04-07T05:47:13.334Z,2.9
2017-04-07T05:52:03.401Z,2.9
2017-04-07T05:57:02.787Z,3.0
2017-04-07T06:02:17.504Z,3.2
2017-04-07T06:07:03.176Z,3.7
2017-04-07T06:12:03.359Z,4.0
2017-04-07T06:17:18.167Z,4.4
2017-04-07T06:22:03.530Z,4.4
2017-04-07T06:27:03.393Z,4.7
2017-04-07T06:32:17.792Z,5.6
2017-04-07T06:37:03.504Z,6.0
2017-04-07T06:42:03.428Z,6.0
2017-04-07T06:47:13.614Z,6.3
2017-04-07T06:52:03.069Z,6.8
2017-04-07T06:57:03.056Z,6.7
2017-04-07T07:02:22.287Z,7.1
2017-04-07T07:07:03.060Z,7.5
2017-04-07T07:12:03.814Z,7.8
2017-04-07T07:17:13.301Z,8.3
2017-04-07T07:22:02.974Z,8.6
2017-04-07T07:27:02.880Z,9.0
2017-04-07T07:32:22.546Z,9.3
2017-04-07T07:37:02.996Z,9.7
2017-04-07T07:42:03.309Z,10.2
2017-04-07T07:47:12.640Z,11.0
2017-04-07T07:52:03.188Z,11.0
2017-04-07T07:57:03.034Z,11.4
2017-04-07T08:02:16.293Z,11.9
2017-04-07T08:07:03.429Z,12.2
2017-04-07T08:12:03.027Z,12.6
2017-04-07T08:17:17.052Z,13.0
2017-04-07T08:22:02.976Z,12.9
2017-04-07T08:27:03.081Z,13.3
2017-04-07T08:32:13.257Z,13.6
2017-04-07T08:37:03.057Z,13.9
2017-04-07T08:42:03.278Z,14.7
2017-04-07T08:47:16.815Z,15.0
2017-04-07T08:52:03.243Z,15.4
2017-04-07T08:57:02.663Z,15.4
2017-04-07T09:02:13.493Z,16.0
2017-04-07T09:07:03.354Z,16.0
2017-04-07T09:12:03.170Z,16.0
2017-04-07T09:17:13.861Z,16.4
2017-04-07T09:22:03.123Z,16.4
2017-04-07T09:27:02.767Z,16.5
2017-04-07T09:32:13.389Z,16.9
2017-04-07T09:37:03.460Z,17.1
2017-04-07T09:42:03.158Z,17.1
2017-04-07T09:47:13.836Z,17.5
2017-04-07T09:52:03.400Z,17.4
2017-04-07T09:57:03.153Z,17.5
2017-04-07T10:02:17.391Z,18.0
2017-04-07T10:07:03.458Z,18.0
2017-04-07T10:12:03.436Z,18.5
2017-04-07T10:17:12.980Z,18.5
2017-04-07T10:22:03.426Z,18.7
2017-04-07T10:27:02.782Z,18.7
2017-04-07T10:32:16.648Z,19.0
2017-04-07T10:37:02.847Z,19.0
2017-04-07T10:42:03.201Z,19.1
2017-04-07T10:47:12.823Z,19.1
2017-04-07T10:52:03.549Z,19.0
2017-04-07T10:57:02.943Z,19.4
2017-04-07T11:02:13.168Z,19.6
2017-04-07T11:07:03.086Z,19.9
2017-04-07T11:12:03.139Z,19.9
2017-04-07T11:17:16.298Z,20.0
2017-04-07T11:22:03.572Z,20.5
2017-04-07T11:27:03.436Z,21.1
2017-04-07T11:32:13.032Z,21.1
2017-04-07T11:37:02.688Z,20.9
2017-04-07T11:42:03.304Z,21.5
2017-04-07T11:47:12.926Z,21.5
2017-04-07T11:52:02.743Z,21.6
2017-04-07T11:57:03.169Z,22.0
2017-04-07T12:02:12.984Z,23.2
2017-04-07T12:07:03.147Z,23.1
2017-04-07T12:12:03.551Z,23.5
2017-04-07T12:17:12.960Z,23.9
2017-04-07T12:22:03.233Z,24.4
2017-04-07T12:27:03.504Z,24.3
2017-04-07T12:32:13.296Z,24.3
2017-04-07T12:37:03.136Z,24.2
2017-04-07T12:42:03.447Z,24.5
2017-04-07T12:47:13.291Z,25.2
2017-04-07T12:52:03.401Z,25.5
2017-04-07T12:57:02.946Z,25.8
2017-04-07T13:02:13.122Z,25.7
2017-04-07T13:07:02.898Z,25.3
2017-04-07T13:12:03.266Z,25.3
2017-04-07T13:17:13.294Z,25.4
2017-04-07T13:22:03.470Z,25.6
2017-04-07T13:27:03.492Z,25.6
2017-04-07T13:32:13.514Z,25.5
2017-04-07T13:37:03.448Z,25.6
2017-04-07T13:42:02.915Z,26.1
2017-04-07T13:47:16.696Z,26.2
2017-04-07T13:52:02.967Z,26.5
2017-04-07T13:57:02.762Z,26.7
2017-04-07T14:02:16.060Z,26.3
2017-04-07T14:07:03.400Z,26.3
2017-04-07T14:12:03.597Z,25.6
2017-04-07T14:17:13.268Z,25.0
2017-04-07T14:22:02.871Z,25.0
2017-04-07T14:27:03.167Z,25.6
2017-04-07T14:32:13.545Z,25.6
2017-04-07T14:37:02.866Z,26.9
2017-04-07T14:42:02.988Z,29.3
2017-04-07T14:47:17.656Z,29.2
2017-04-07T14:52:03.221Z,30.4
2017-04-07T14:57:02.828Z,32.3
2017-04-07T15:02:13.628Z,33.2
2017-04-07T15:07:02.910Z,33.4
2017-04-07T15:12:03.288Z,34.1
2017-04-07T15:17:13.999Z,34.4
2017-04-07T15:22:03.181Z,34.4
2017-04-07T15:27:02.989Z,35.1
2017-04-07T15:32:13.953Z,34.9
2017-04-07T15:37:03.200Z,35.1
2017-04-07T15:42:03.026Z,35.7
2017-04-07T15:47:13.420Z,35.6
2017-04-07T15:52:03.326Z,34.4
2017-04-07T15:57:02.725Z,34.3
2017-04-07T16:02:13.298Z,34.0
2017-04-07T16:07:02.950Z,34.7
2017-04-07T16:12:02.800Z,34.7
2017-04-07T16:17:14.279Z,34.8
2017-04-07T16:22:03.357Z,26.7
2017-04-07T16:27:03.730Z,24.7
2017-04-07T16:32:17.254Z,22.3
2017-04-07T16:37:03.467Z,25.4
2017-04-07T16:42:03.070Z,29.2
2017-04-07T16:47:13.952Z,29.1
2017-04-07T16:52:03.151Z,30.0
2017-04-07T16:57:02.652Z,30.0
2017-04-07T17:02:13.396Z,29.5
2017-04-07T17:07:03.441Z,28.6
2017-04-07T17:12:03.325Z,28.5
2017-04-07T17:17:13.938Z,28.0
2017-04-07T17:22:02.803Z,25.8
2017-04-07T17:27:02.922Z,25.7
2017-04-07T17:32:13.912Z,24.4
2017-04-07T17:37:03.019Z,23.1
2017-04-07T17:42:02.928Z,21.7
2017-04-07T17:47:13.460Z,19.6
2017-04-07T17:52:03.543Z,18.1
2017-04-07T17:57:03.133Z,17.1
2017-04-07T18:02:13.639Z,15.6
2017-04-07T18:07:03.517Z,15.1
2017-04-07T18:12:03.643Z,15.0
2017-04-07T18:17:14.073Z,14.6
2017-04-07T18:22:03.495Z,14.1
2017-04-07T18:27:03.044Z,13.6
2017-04-07T18:32:10.537Z,13.2
2017-04-07T18:37:02.961Z,12.9
2017-04-07T18:42:03.461Z,12.4
2017-04-07T18:47:07.373Z,12.2
2017-04-07T18:52:02.920Z,12.1
2017-04-07T18:57:03.017Z,11.9
2017-04-07T19:02:02.910Z,11.9
2017-04-07T19:07:03.106Z,11.8
2017-04-07T19:12:03.145Z,11.7
2017-04-07T19:17:03.617Z,11.6
2017-04-07T19:22:03.075Z,11.6
2017-04-07T19:27:03.195Z,11.5
2017-04-07T19:32:02.927Z,11.4
2017-04-07T19:37:02.803Z,11.4
2017-04-07T19:42:02.682Z,11.4
2017-04-07T19:47:03.511Z,11.4
2017-04-07T19:52:03.145Z,11.3
2017-04-07T19:57:03.033Z,11.3
2017-04-07T20:02:03.110Z,11.2
2017-04-07T20:07:03.219Z,11.1
2017-04-07T20:12:02.815Z,11.0
2017-04-07T20:17:03.344Z,11.0
2017-04-07T20:22:03.413Z,10.6
2017-04-07T20:27:03.309Z,10.6
2017-04-07T20:32:03.152Z,10.4
2017-04-07T20:37:03.319Z,10.3
2017-04-07T20:42:02.767Z,10.3
2017-04-07T20:47:03.225Z,10.1
2017-04-07T20:52:03.276Z,10.1
2017-04-07T20:57:02.790Z,10.1
2017-04-07T21:02:03.040Z,9.9
2017-04-07T21:07:02.919Z,9.7
2017-04-07T21:12:02.747Z,9.6
2017-04-07T21:17:03.662Z,9.5
2017-04-07T21:22:03.558Z,9.5
2017-04-07T21:27:03.587Z,9.5
2017-04-07T21:32:03.573Z,9.4
2017-04-07T21:37:03.231Z,9.1
2017-04-07T21:42:02.970Z,9.1
2017-04-07T21:47:03.192Z,8.7
2017-04-07T21:52:02.842Z,8.6
2017-04-07T21:57:03.181Z,8.6
2017-04-07T22:02:03.101Z,8.5
2017-04-07T22:07:03.451Z,8.3
2017-04-07T22:12:03.420Z,8.3
2017-04-07T22:22:03.284Z,8.1
2017-04-07T22:27:03.497Z,8.0
2017-04-07T22:32:03.293Z,8.0
2017-04-07T22:37:02.814Z,7.9
2017-04-07T22:42:03.323Z,7.8
2017-04-07T22:47:03.263Z,7.8
2017-04-07T22:52:02.793Z,7.7
2017-04-07T22:57:03.294Z,7.7
2017-04-07T23:02:03.042Z,7.6
2017-04-07T23:07:02.953Z,7.3
2017-04-07T23:12:03.502Z,7.3
2017-04-07T23:17:03.374Z,7.0
2017-04-07T23:22:02.949Z,6.9
2017-04-07T23:27:03.412Z,6.8
2017-04-07T23:32:02.986Z,6.7
2017-04-07T23:37:02.834Z,6.7
2017-04-07T23:42:03.507Z,6.6
2017-04-07T23:47:02.873Z,6.5
2017-04-07T23:52:03.325Z,6.5
2017-04-07T23:57:03.013Z,6.4
